Time;durP1;ratioP1;P1;durP2;ratioP2;P2;SDS_P1;SDS_P2;PMS_P1;PMS_P2;Temp;Humidity;BMP_temperature;BMP_pressure;BME280_temperature;BME280_humidity;BME280_pressure;Samples;Min_cycle;Max_cycle;Signal;HPM_P1;HPM_P2
2023/07/05 00:00:22;;;;;;;9.93;6.47;;;13.50;99.90;;;;;;5009667;28;20795;-72
2023/07/05 00:02:52;;;;;;;11.67;5.70;;;13.50;99.90;;;;;;5005977;28;20068;-72
2023/07/05 00:05:18;;;;;;;15.63;5.93;;;13.50;99.90;;;;;;5000244;28;20033;-73
2023/07/05 00:07:43;;;;;;;13.07;6.33;;;13.50;99.90;;;;;;5002386;28;20369;-72
2023/07/05 00:10:10;;;;;;;9.93;6.07;;;13.50;99.90;;;;;;4983454;28;20494;-72
2023/07/05 00:12:35;;;;;;;10.30;6.00;;;13.50;99.90;;;;;;5004668;28;20540;-72
2023/07/05 00:15:01;;;;;;;13.67;5.90;;;13.50;99.90;;;;;;5001094;28;20305;-72
2023/07/05 00:17:31;;;;;;;11.23;5.97;;;13.60;99.90;;;;;;4981324;28;20573;-72
2023/07/05 00:19:57;;;;;;;14.73;6.50;;;13.60;99.90;;;;;;5008888;28;20327;-72
2023/07/05 00:22:23;;;;;;;11.37;6.50;;;13.60;99.90;;;;;;5005015;28;20789;-72
2023/07/05 00:24:52;;;;;;;17.37;7.07;;;13.60;99.90;;;;;;5009649;28;20073;-72
2023/07/05 00:27:18;;;;;;;10.90;6.00;;;13.60;99.90;;;;;;5007530;28;20077;-72
2023/07/05 00:29:43;;;;;;;12.50;6.60;;;13.60;99.90;;;;;;5007717;28;20332;-72
2023/07/05 00:32:09;;;;;;;13.10;6.20;;;13.70;99.90;;;;;;5006855;28;20065;-72
2023/07/05 00:34:35;;;;;;;13.47;6.20;;;13.70;99.90;;;;;;5009746;28;20457;-72
2023/07/05 00:37:00;;;;;;;15.43;5.60;;;13.70;99.90;;;;;;5008997;28;20048;-72
2023/07/05 00:39:26;;;;;;;9.57;5.33;;;13.70;99.90;;;;;;4992715;28;20041;-72
2023/07/05 00:41:52;;;;;;;11.17;5.67;;;13.70;99.90;;;;;;5008809;28;20152;-72
2023/07/05 00:44:18;;;;;;;12.03;5.67;;;13.70;99.90;;;;;;5007156;28;20037;-72
2023/07/05 00:46:49;;;;;;;15.53;5.97;;;13.70;99.90;;;;;;5008274;28;20323;-72
2023/07/05 00:49:18;;;;;;;12.00;5.60;;;13.70;99.90;;;;;;4990685;28;20136;-72
2023/07/05 00:51:56;;;;;;;14.20;6.83;;;13.70;99.90;;;;;;5007407;28;20276;-72
2023/07/05 00:54:28;;;;;;;14.07;5.80;;;13.70;99.90;;;;;;5001688;28;20285;-72
2023/07/05 00:57:02;;;;;;;13.30;6.27;;;13.70;99.90;;;;;;5009099;28;20283;-72
2023/07/05 00:59:33;;;;;;;11.18;5.78;;;13.70;99.90;;;;;;5009598;28;20284;-72
2023/07/05 01:01:59;;;;;;;12.77;6.20;;;13.70;99.90;;;;;;5006966;28;20072;-72
2023/07/05 01:04:25;;;;;;;11.47;6.23;;;13.70;99.90;;;;;;4992981;28;20285;-72
2023/07/05 01:06:50;;;;;;;15.73;6.63;;;13.70;99.90;;;;;;5005728;28;20050;-72
2023/07/05 01:09:17;;;;;;;17.13;6.67;;;13.70;99.90;;;;;;5007340;28;20703;-72
2023/07/05 01:11:52;;;;;;;12.07;6.60;;;13.70;99.90;;;;;;5007481;28;20103;-72
2023/07/05 01:14:23;;;;;;;12.95;7.03;;;13.70;99.90;;;;;;4990537;28;20277;-72
2023/07/05 01:17:18;;;;;;;10.43;6.90;;;13.70;99.90;;;;;;5003336;28;20561;-72
2023/07/05 01:20:18;;;;;;;13.15;6.88;;;13.70;99.90;;;;;;4997054;28;20288;-72
2023/07/05 01:22:59;;;;;;;15.17;7.30;;;13.70;99.90;;;;;;5004945;28;20038;-72
2023/07/05 01:25:56;;;;;;;14.10;7.50;;;13.70;99.90;;;;;;5008877;28;20292;-72
2023/07/05 01:29:02;;;;;;;18.30;8.20;;;13.70;99.90;;;;;;5003633;28;20372;-72
2023/07/05 01:31:47;;;;;;;12.83;7.77;;;13.70;99.90;;;;;;4976273;28;20284;-72
2023/07/05 01:34:43;;;;;;;13.77;7.95;;;13.70;99.90;;;;;;5004553;28;20285;-72
2023/07/05 01:37:22;;;;;;;13.63;7.60;;;13.60;99.90;;;;;;5007638;28;20056;-72
2023/07/05 01:39:47;;;;;;;14.73;8.23;;;13.60;99.90;;;;;;4987577;28;20757;-72
2023/07/05 01:42:13;;;;;;;17.13;8.40;;;13.60;99.90;;;;;;5006650;28;20380;-72
2023/07/05 01:44:39;;;;;;;14.87;8.50;;;13.60;99.90;;;;;;4993872;28;20125;-72
2023/07/05 01:47:33;;;;;;;16.53;8.67;;;13.50;99.90;;;;;;5006420;28;20391;-72
2023/07/05 01:50:10;;;;;;;15.40;8.77;;;13.50;99.90;;;;;;5007876;28;20112;-72
2023/07/05 01:53:03;;;;;;;14.07;9.53;;;13.50;99.90;;;;;;5000042;28;20279;-72
2023/07/05 01:55:39;;;;;;;15.13;9.50;;;13.50;99.90;;;;;;4985744;28;20281;-73
2023/07/05 01:58:18;;;;;;;17.20;9.40;;;13.50;99.90;;;;;;5008032;28;20285;-73
2023/07/05 02:00:47;;;;;;;14.53;9.47;;;13.50;99.90;;;;;;5007936;28;20285;-73
2023/07/05 02:03:16;;;;;;;14.10;10.07;;;13.50;99.90;;;;;;5004708;28;20420;-73
2023/07/05 02:05:43;;;;;;;16.23;9.90;;;13.50;99.90;;;;;;5002708;28;20305;-73
2023/07/05 02:08:09;;;;;;;16.67;10.57;;;13.50;99.90;;;;;;5001186;28;20643;-73
2023/07/05 02:10:34;;;;;;;18.50;11.60;;;13.50;99.90;;;;;;5007833;28;20361;-72
2023/07/05 02:13:06;;;;;;;17.43;10.33;;;13.50;99.90;;;;;;5007794;28;20520;-72
2023/07/05 02:15:33;;;;;;;19.33;10.17;;;13.50;99.90;;;;;;4997573;28;20966;-73
2023/07/05 02:17:59;;;;;;;16.27;10.20;;;13.50;99.90;;;;;;5007787;28;20351;-73
2023/07/05 02:20:25;;;;;;;16.03;10.23;;;13.50;99.90;;;;;;4990123;28;20315;-73
2023/07/05 02:22:50;;;;;;;18.87;10.83;;;13.50;99.90;;;;;;4982760;28;20042;-73
2023/07/05 02:25:16;;;;;;;19.60;10.23;;;13.50;99.90;;;;;;5003487;28;20467;-73
2023/07/05 02:27:42;;;;;;;18.77;10.43;;;13.50;99.90;;;;;;4991162;28;20452;-73
2023/07/05 02:30:09;;;;;;;17.30;10.80;;;13.50;99.90;;;;;;5006510;28;20042;-73
2023/07/05 02:32:36;;;;;;;17.83;10.70;;;13.50;99.90;;;;;;5006972;28;20038;-73
2023/07/05 02:35:01;;;;;;;20.10;11.30;;;13.50;99.90;;;;;;4998497;28;20293;-73
2023/07/05 02:37:27;;;;;;;18.37;10.90;;;13.50;99.90;;;;;;5000527;28;20644;-73
2023/07/05 02:39:54;;;;;;;18.77;11.83;;;13.60;99.90;;;;;;5000908;28;20038;-73
2023/07/05 02:42:20;;;;;;;18.77;11.47;;;13.50;99.90;;;;;;5007274;28;20072;-73
2023/07/05 02:44:48;;;;;;;20.47;11.60;;;13.50;99.90;;;;;;4991574;28;20332;-74
2023/07/05 02:47:17;;;;;;;20.40;12.23;;;13.50;99.90;;;;;;4990951;28;20396;-73
2023/07/05 02:49:43;;;;;;;26.53;13.20;;;13.50;99.90;;;;;;4989124;28;20329;-73
2023/07/05 02:52:08;;;;;;;23.23;13.60;;;13.40;99.90;;;;;;4991214;28;20744;-73
2023/07/05 02:54:34;;;;;;;26.53;13.50;;;13.40;99.90;;;;;;5007089;28;20038;-74
2023/07/05 02:57:00;;;;;;;25.33;13.63;;;13.40;99.90;;;;;;4999535;28;20042;-74
2023/07/05 02:59:25;;;;;;;21.67;14.73;;;13.40;99.90;;;;;;4998655;28;20474;-73
2023/07/05 03:01:51;;;;;;;23.73;15.20;;;13.40;99.90;;;;;;5007166;28;20049;-74
2023/07/05 03:04:17;;;;;;;23.87;14.90;;;13.40;99.90;;;;;;4990227;28;20512;-74
2023/07/05 03:06:42;;;;;;;26.27;14.87;;;13.40;99.90;;;;;;5004827;28;20042;-74
2023/07/05 03:09:08;;;;;;;24.27;14.93;;;13.40;99.90;;;;;;5007440;28;20042;-74
2023/07/05 03:11:34;;;;;;;26.57;15.13;;;13.40;99.90;;;;;;5006507;28;20521;-74
2023/07/05 03:13:59;;;;;;;24.20;15.00;;;13.50;99.90;;;;;;5003539;28;20052;-74
2023/07/05 03:16:25;;;;;;;26.07;16.73;;;13.50;99.90;;;;;;5005644;28;20128;-74
2023/07/05 03:18:51;;;;;;;31.70;16.03;;;13.50;99.90;;;;;;5006403;28;20124;-74
2023/07/05 03:21:16;;;;;;;28.10;16.57;;;13.50;99.90;;;;;;5007719;28;20049;-74
2023/07/05 03:23:42;;;;;;;25.63;16.30;;;13.50;99.90;;;;;;5006581;28;20045;-74
2023/07/05 03:26:08;;;;;;;28.20;16.70;;;13.60;99.90;;;;;;5005276;28;20050;-74
2023/07/05 03:28:35;;;;;;;30.77;17.63;;;13.60;99.90;;;;;;4990683;28;20057;-74
2023/07/05 03:31:06;;;;;;;31.43;18.23;;;13.60;99.90;;;;;;5007076;28;20050;-74
2023/07/05 03:33:33;;;;;;;32.90;19.10;;;13.70;99.90;;;;;;4989809;28;20297;-74
2023/07/05 03:36:09;;;;;;;23.50;16.37;;;13.70;99.90;;;;;;5006801;28;20305;-73
2023/07/05 03:38:35;;;;;;;31.70;18.10;;;13.70;99.90;;;;;;4980130;28;20519;-73
2023/07/05 03:41:02;;;;;;;25.57;16.50;;;13.80;99.90;;;;;;4982052;28;20424;-74
2023/07/05 03:43:29;;;;;;;27.53;16.83;;;13.80;99.90;;;;;;4990820;28;20081;-73
2023/07/05 03:45:59;;;;;;;26.73;16.00;;;13.80;99.90;;;;;;5011364;28;20297;-74
2023/07/05 03:48:26;;;;;;;23.53;14.83;;;13.90;99.90;;;;;;4984898;28;20288;-73
2023/07/05 03:50:55;;;;;;;26.57;16.43;;;13.90;99.90;;;;;;5006547;28;20714;-73
2023/07/05 03:53:21;;;;;;;29.03;17.27;;;13.90;99.90;;;;;;5005566;28;20291;-74
2023/07/05 03:55:47;;;;;;;26.47;16.63;;;14.00;99.90;;;;;;5010231;28;20285;-74
2023/07/05 03:58:13;;;;;;;25.60;16.83;;;14.00;99.90;;;;;;4999804;28;20301;-74
2023/07/05 04:00:39;;;;;;;26.63;15.93;;;14.00;99.90;;;;;;4994310;28;20046;-74
2023/07/05 04:03:04;;;;;;;23.57;15.77;;;14.00;99.90;;;;;;5010467;28;20100;-74
2023/07/05 04:05:30;;;;;;;22.30;15.60;;;14.00;99.90;;;;;;4987914;28;20070;-74
2023/07/05 04:07:56;;;;;;;20.27;14.03;;;14.00;99.90;;;;;;5003751;28;20030;-73
2023/07/05 04:10:21;;;;;;;19.67;13.27;;;14.10;99.90;;;;;;4992475;28;20038;-73
2023/07/05 04:12:49;;;;;;;21.70;13.20;;;14.10;99.90;;;;;;4990156;28;20097;-73
2023/07/05 04:15:14;;;;;;;20.33;13.83;;;14.10;99.90;;;;;;4994038;28;20689;-73
2023/07/05 04:17:40;;;;;;;17.83;12.00;;;14.20;99.90;;;;;;5009329;28;20296;-73
2023/07/05 04:20:06;;;;;;;17.93;12.70;;;14.20;99.90;;;;;;4991269;28;20034;-73
2023/07/05 04:22:35;;;;;;;18.80;11.50;;;14.20;99.90;;;;;;5009686;28;20128;-73
2023/07/05 04:25:01;;;;;;;19.40;10.13;;;14.20;99.90;;;;;;5010095;28;20365;-73
2023/07/05 04:27:27;;;;;;;14.87;9.57;;;14.30;99.90;;;;;;5010684;28;20417;-73
2023/07/05 04:29:52;;;;;;;12.93;8.97;;;14.30;99.90;;;;;;5009387;28;20046;-73
2023/07/05 04:32:18;;;;;;;11.27;7.50;;;14.30;99.90;;;;;;5001273;28;20030;-73
2023/07/05 04:34:44;;;;;;;11.00;5.53;;;14.30;99.90;;;;;;5009641;28;20034;-73
2023/07/05 04:37:09;;;;;;;11.53;4.87;;;14.30;99.90;;;;;;4989145;28;20152;-73
2023/07/05 04:39:35;;;;;;;9.77;4.27;;;14.20;99.90;;;;;;5007863;28;20061;-73
2023/07/05 04:42:01;;;;;;;7.53;3.90;;;14.10;99.90;;;;;;5005811;28;20502;-73
2023/07/05 04:44:26;;;;;;;9.13;4.13;;;14.00;99.90;;;;;;5014537;28;20401;-73
2023/07/05 04:46:52;;;;;;;8.13;4.10;;;13.90;99.90;;;;;;5004484;28;20053;-73
2023/07/05 04:49:18;;;;;;;8.00;4.50;;;13.90;99.90;;;;;;5008515;28;20034;-73
2023/07/05 04:51:44;;;;;;;9.37;4.30;;;13.90;99.90;;;;;;5003181;28;20040;-73
2023/07/05 04:54:09;;;;;;;9.57;3.63;;;14.00;99.90;;;;;;5008818;28;20509;-73
2023/07/05 04:56:36;;;;;;;9.43;3.77;;;14.20;99.90;;;;;;5002352;28;20052;-73
2023/07/05 04:59:02;;;;;;;7.30;3.70;;;14.20;99.90;;;;;;5010742;28;20131;-73
2023/07/05 05:01:27;;;;;;;8.03;4.07;;;14.20;99.90;;;;;;4983383;28;20324;-72
2023/07/05 05:03:53;;;;;;;8.83;4.00;;;14.10;99.90;;;;;;5006142;28;20065;-73
2023/07/05 05:06:19;;;;;;;7.37;4.00;;;14.00;99.90;;;;;;5007916;28;20487;-73
2023/07/05 05:08:44;;;;;;;8.30;4.17;;;13.90;99.90;;;;;;4992620;28;20040;-73
2023/07/05 05:11:10;;;;;;;7.50;4.07;;;13.80;99.90;;;;;;4997566;28;20136;-73
2023/07/05 05:13:36;;;;;;;5.90;3.97;;;13.80;99.90;;;;;;5002064;28;20543;-73
2023/07/05 05:16:03;;;;;;;9.00;4.20;;;13.80;99.90;;;;;;5008332;28;20531;-73
2023/07/05 05:18:31;;;;;;;5.53;4.03;;;13.80;99.90;;;;;;4991793;28;20668;-73
2023/07/05 05:20:57;;;;;;;8.90;4.90;;;13.70;99.90;;;;;;5001166;28;20855;-73
2023/07/05 05:23:23;;;;;;;7.33;4.87;;;13.70;99.90;;;;;;5006263;28;20308;-73
2023/07/05 05:25:49;;;;;;;8.20;5.10;;;13.60;99.90;;;;;;5008744;28;20636;-73
2023/07/05 05:28:15;;;;;;;8.53;5.00;;;13.60;99.90;;;;;;4992067;28;20269;-72
2023/07/05 05:30:45;;;;;;;6.73;4.90;;;13.50;99.90;;;;;;5007342;28;20038;-73
2023/07/05 05:33:13;;;;;;;8.20;4.87;;;13.50;99.90;;;;;;4992203;28;20669;-73
2023/07/05 05:35:38;;;;;;;7.27;5.63;;;13.40;99.90;;;;;;5007438;28;20283;-73
2023/07/05 05:38:04;;;;;;;10.50;5.50;;;13.40;99.90;;;;;;5005259;28;20281;-73
2023/07/05 05:40:32;;;;;;;8.10;5.80;;;13.30;99.90;;;;;;5005988;28;20173;-73
2023/07/05 05:42:58;;;;;;;7.40;5.70;;;13.30;99.90;;;;;;4990531;28;20041;-73
2023/07/05 05:45:24;;;;;;;8.83;5.30;;;13.40;99.90;;;;;;4992600;28;20280;-73
2023/07/05 05:47:50;;;;;;;7.60;5.53;;;13.30;99.90;;;;;;4991408;28;20117;-73
2023/07/05 05:50:15;;;;;;;11.93;5.63;;;13.30;99.90;;;;;;5002686;28;20062;-73
2023/07/05 05:52:41;;;;;;;11.57;5.23;;;13.30;99.90;;;;;;5006121;28;20038;-73
2023/07/05 05:55:07;;;;;;;9.67;5.03;;;13.30;99.90;;;;;;5008734;28;20038;-73
2023/07/05 05:57:33;;;;;;;8.80;4.60;;;13.30;99.90;;;;;;4992654;28;20479;-73
2023/07/05 05:59:59;;;;;;;8.70;4.80;;;13.30;99.90;;;;;;5002602;28;20521;-73
2023/07/05 06:02:24;;;;;;;10.00;4.87;;;13.30;99.90;;;;;;4987011;28;20045;-73
2023/07/05 06:04:50;;;;;;;7.00;4.50;;;13.30;99.90;;;;;;5008106;28;20606;-73
2023/07/05 06:07:17;;;;;;;6.57;4.47;;;13.30;99.90;;;;;;5006779;28;20042;-73
2023/07/05 06:09:48;;;;;;;6.67;4.30;;;13.40;99.90;;;;;;5003643;28;20041;-73
2023/07/05 06:12:15;;;;;;;7.37;4.20;;;13.40;99.90;;;;;;4997127;28;20284;-72
2023/07/05 06:14:41;;;;;;;7.27;3.97;;;13.60;99.90;;;;;;5008944;28;20276;-73
2023/07/05 06:17:07;;;;;;;7.37;4.00;;;13.90;99.90;;;;;;5008177;28;20660;-73
2023/07/05 06:19:33;;;;;;;6.47;3.97;;;14.40;99.90;;;;;;5008409;28;20121;-73
2023/07/05 06:21:59;;;;;;;8.63;4.00;;;15.10;99.90;;;;;;4992104;28;20300;-73
2023/07/05 06:24:25;;;;;;;5.97;3.60;;;15.70;99.90;;;;;;5004275;28;20042;-73
2023/07/05 06:26:52;;;;;;;7.70;2.90;;;15.80;97.10;;;;;;4992746;28;20305;-73
2023/07/05 06:29:18;;;;;;;6.37;3.67;;;15.70;98.20;;;;;;4992735;28;20048;-73
2023/07/05 06:31:43;;;;;;;5.53;2.93;;;16.00;98.90;;;;;;5008590;28;20272;-73
2023/07/05 06:34:09;;;;;;;6.47;3.30;;;16.50;97.10;;;;;;5007356;28;20285;-73
2023/07/05 06:36:35;;;;;;;6.87;2.93;;;16.90;94.70;;;;;;5008823;28;20125;-73
2023/07/05 06:39:02;;;;;;;6.90;3.20;;;17.20;91.80;;;;;;5008892;28;20463;-73
2023/07/05 06:41:28;;;;;;;7.33;2.70;;;17.00;89.60;;;;;;5008789;28;20092;-73
2023/07/05 06:43:54;;;;;;;8.40;2.43;;;16.80;90.70;;;;;;4992362;28;20336;-73
2023/07/05 06:46:20;;;;;;;7.77;2.60;;;17.00;91.10;;;;;;4994049;28;20760;-73
2023/07/05 06:48:46;;;;;;;2.80;1.90;;;16.80;89.30;;;;;;4992792;28;20042;-73
2023/07/05 06:51:11;;;;;;;5.50;2.13;;;16.40;90.30;;;;;;5009772;28;20042;-73
2023/07/05 06:53:38;;;;;;;5.57;1.60;;;16.00;91.60;;;;;;5004253;28;20037;-73
2023/07/05 06:56:04;;;;;;;2.97;1.80;;;16.00;92.30;;;;;;5006297;28;20050;-73
2023/07/05 06:58:30;;;;;;;5.90;2.40;;;16.10;91.30;;;;;;5008817;28;20779;-73
2023/07/05 07:00:56;;;;;;;4.77;1.80;;;15.90;89.30;;;;;;4989301;28;20308;-73
2023/07/05 07:03:22;;;;;;;7.00;2.10;;;15.70;89.30;;;;;;5008536;28;20422;-73
2023/07/05 07:05:54;;;;;;;4.73;2.20;;;15.40;89.50;;;;;;5008905;28;20288;-73
2023/07/05 07:08:20;;;;;;;4.83;2.33;;;15.10;90.90;;;;;;5010333;28;20034;-73
2023/07/05 07:10:47;;;;;;;3.90;1.40;;;14.80;93.50;;;;;;5010948;28;20289;-73
2023/07/05 07:13:14;;;;;;;4.37;1.97;;;14.60;91.90;;;;;;4994447;28;20316;-74
2023/07/05 07:15:41;;;;;;;6.37;3.27;;;14.40;94.30;;;;;;5010614;28;20281;-73
2023/07/05 07:18:07;;;;;;;5.30;2.77;;;14.00;97.40;;;;;;5007338;28;20339;-73
2023/07/05 07:20:33;;;;;;;5.70;1.73;;;13.60;99.80;;;;;;5012995;28;20752;-72
2023/07/05 07:22:59;;;;;;;4.70;1.47;;;13.30;99.90;;;;;;4994222;28;20354;-72
2023/07/05 07:25:25;;;;;;;4.37;1.20;;;13.00;99.90;;;;;;5013428;28;20429;-72
2023/07/05 07:27:51;;;;;;;3.37;0.53;;;12.70;99.90;;;;;;5011832;28;20041;-73
2023/07/05 07:30:17;;;;;;;3.53;0.50;;;12.40;99.90;;;;;;5010780;28;20281;-72
2023/07/05 07:32:46;;;;;;;2.27;0.60;;;12.10;99.90;;;;;;5012087;28;20033;-72
2023/07/05 07:35:13;;;;;;;1.20;0.40;;;11.80;99.90;;;;;;5009180;28;20780;-73
2023/07/05 07:37:39;;;;;;;2.50;0.40;;;11.60;99.90;;;;;;4994934;28;20287;-72
2023/07/05 07:40:06;;;;;;;4.13;0.67;;;11.50;99.90;;;;;;5012548;28;20628;-72
2023/07/05 07:42:33;;;;;;;2.07;0.43;;;11.40;99.90;;;;;;4993573;28;20454;-72
2023/07/05 07:44:59;;;;;;;1.37;0.50;;;11.20;99.90;;;;;;5003491;28;20281;-72
2023/07/05 07:47:25;;;;;;;1.73;0.47;;;11.10;99.90;;;;;;4995828;28;20785;-72
2023/07/05 07:49:51;;;;;;;2.33;0.90;;;11.10;99.90;;;;;;5007753;28;20299;-71
2023/07/05 07:52:18;;;;;;;4.40;0.70;;;11.10;99.90;;;;;;5006855;28;20044;-72
2023/07/05 07:54:44;;;;;;;1.73;0.50;;;11.10;99.90;;;;;;4994471;28;20273;-72
2023/07/05 07:57:09;;;;;;;3.03;0.50;;;11.10;99.90;;;;;;5010967;28;20728;-71
2023/07/05 07:59:40;;;;;;;2.00;0.50;;;11.10;99.90;;;;;;5009864;28;20426;-72
2023/07/05 08:02:12;;;;;;;2.53;0.45;;;11.10;99.90;;;;;;5012084;28;20184;-72
2023/07/05 08:04:45;;;;;;;3.80;0.90;;;11.10;99.90;;;;;;5012114;28;20065;-72
2023/07/05 08:07:11;;;;;;;2.25;0.40;;;11.10;99.90;;;;;;4998113;28;20048;-72
2023/07/05 08:09:37;;;;;;;4.03;0.57;;;11.10;99.90;;;;;;5009697;28;20127;-72
2023/07/05 08:12:03;;;;;;;2.70;0.50;;;11.10;99.90;;;;;;4986589;28;20469;-72
2023/07/05 08:14:29;;;;;;;5.40;0.70;;;11.10;99.90;;;;;;4990787;28;20038;-72
2023/07/05 08:16:55;;;;;;;4.30;0.93;;;11.10;99.90;;;;;;4993442;28;20034;-72
2023/07/05 08:19:21;;;;;;;5.63;0.97;;;11.20;99.90;;;;;;5009616;28;20045;-72
2023/07/05 08:21:47;;;;;;;5.90;1.30;;;11.20;99.90;;;;;;4992814;28;20044;-72
2023/07/05 08:24:14;;;;;;;12.07;1.92;;;11.30;99.90;;;;;;5010855;28;20050;-72
2023/07/05 08:26:41;;;;;;;15.77;2.92;;;11.40;99.90;;;;;;4992579;28;20163;-72
2023/07/05 08:29:08;;;;;;;21.25;3.05;;;11.60;99.90;;;;;;5006800;28;20161;-72
2023/07/05 08:31:34;;;;;;;14.38;2.67;;;11.70;99.90;;;;;;5006400;28;20049;-72
2023/07/05 08:34:01;;;;;;;12.80;2.47;;;11.90;99.90;;;;;;4993216;28;20042;-72
2023/07/05 08:36:32;;;;;;;9.00;1.10;;;12.10;99.90;;;;;;5008023;28;20041;-72
2023/07/05 08:38:59;;;;;;;9.23;1.30;;;12.30;99.90;;;;;;5004360;28;20305;-72
2023/07/05 08:41:25;;;;;;;6.00;0.90;;;12.50;99.90;;;;;;5003688;28;20649;-72
2023/07/05 08:43:59;;;;;;;8.90;1.17;;;12.70;99.90;;;;;;5003164;28;20298;-72
2023/07/05 08:46:27;;;;;;;9.27;1.30;;;13.00;99.90;;;;;;5004835;28;20046;-72
2023/07/05 08:49:05;;;;;;;22.93;3.10;;;13.20;99.90;;;;;;5001348;28;20029;-72
2023/07/05 08:51:31;;;;;;;19.23;4.33;;;13.80;99.90;;;;;;4996305;28;20780;-73
2023/07/05 08:54:01;;;;;;;24.37;5.63;;;14.40;99.90;;;;;;4982502;28;20284;-73
2023/07/05 08:56:34;;;;;;;26.17;4.50;;;14.80;99.90;;;;;;4996835;28;20289;-73
2023/07/05 08:59:32;;;;;;;15.50;2.90;;;15.10;99.90;;;;;;4986155;28;20867;-73
2023/07/05 09:02:00;;;;;;;11.40;2.00;;;15.20;99.90;;;;;;4989266;28;20396;-73
2023/07/05 09:04:34;;;;;;;8.20;1.90;;;15.50;99.90;;;;;;4998222;28;20764;-72
2023/07/05 09:07:23;;;;;;;8.00;2.20;;;15.60;99.90;;;;;;5007983;28;20300;-73
2023/07/05 09:10:21;;;;;;;5.07;1.20;;;15.10;99.90;;;;;;4989295;28;20049;-73
2023/07/05 09:13:09;;;;;;;3.17;0.70;;;14.80;99.90;;;;;;5003015;28;20787;-72
2023/07/05 09:15:41;;;;;;;4.63;0.70;;;14.80;99.90;;;;;;4995857;28;20320;-72
2023/07/05 09:18:17;;;;;;;2.27;0.30;;;15.00;99.90;;;;;;5003721;28;20308;-72
2023/07/05 09:21:09;;;;;;;1.87;0.30;;;15.00;99.90;;;;;;5007435;28;20296;-72
2023/07/05 09:23:47;;;;;;;1.47;0.40;;;15.00;99.90;;;;;;5007556;28;20352;-72
2023/07/05 09:26:29;;;;;;;2.63;0.30;;;15.00;99.90;;;;;;4998419;28;20319;-72
2023/07/05 09:29:13;;;;;;;4.53;0.30;;;15.10;99.90;;;;;;5002705;28;20315;-72
2023/07/05 09:31:41;;;;;;;2.33;0.40;;;15.20;99.90;;;;;;5005094;28;20279;-71
2023/07/05 09:34:19;;;;;;;3.33;0.50;;;15.20;97.30;;;;;;4990793;28;20827;-72
2023/07/05 09:36:47;;;;;;;8.00;1.07;;;15.00;94.80;;;;;;5007522;28;20363;-72
2023/07/05 09:39:19;;;;;;;3.63;0.20;;;15.00;96.40;;;;;;5000338;28;20305;-73
2023/07/05 09:41:51;;;;;;;3.83;0.27;;;14.90;95.20;;;;;;4987290;28;20289;-72
2023/07/05 09:44:19;;;;;;;2.80;0.37;;;14.70;97.10;;;;;;4987797;28;20295;-72
2023/07/05 09:46:45;;;;;;;1.90;0.30;;;14.40;95.00;;;;;;4999386;28;20332;-72
2023/07/05 09:49:14;;;;;;;3.07;0.30;;;14.30;98.00;;;;;;4986509;28;20799;-72
2023/07/05 09:51:44;;;;;;;3.77;0.50;;;14.50;98.60;;;;;;4990186;28;20657;-72
2023/07/05 09:54:26;;;;;;;2.27;0.30;;;14.70;94.90;;;;;;4985990;28;20296;-72
2023/07/05 09:57:04;;;;;;;3.63;0.40;;;14.80;92.80;;;;;;4988826;28;20284;-72
2023/07/05 09:59:31;;;;;;;2.63;0.30;;;14.90;94.50;;;;;;4992619;28;20371;-72
2023/07/05 10:02:19;;;;;;;1.87;0.30;;;15.10;92.80;;;;;;4989620;28;20360;-72
2023/07/05 10:04:56;;;;;;;5.13;0.60;;;15.30;93.10;;;;;;4984373;28;20364;-72
2023/07/05 10:07:32;;;;;;;1.43;0.30;;;15.50;90.60;;;;;;4994282;28;20307;-73
2023/07/05 10:10:11;;;;;;;4.03;0.83;;;15.60;90.80;;;;;;4980056;28;20331;-73
2023/07/05 10:12:40;;;;;;;5.50;0.60;;;15.80;89.80;;;;;;5002845;28;20280;-72
2023/07/05 10:15:21;;;;;;;2.00;0.20;;;15.90;88.10;;;;;;4988631;28;20296;-72
2023/07/05 10:17:53;;;;;;;8.97;1.57;;;16.10;89.90;;;;;;4986203;28;20285;-72
2023/07/05 10:20:26;;;;;;;3.03;0.20;;;16.30;88.20;;;;;;5004293;28;20699;-73
2023/07/05 10:23:01;;;;;;;6.63;0.30;;;16.40;87.80;;;;;;4987699;28;20379;-73
2023/07/05 10:25:35;;;;;;;4.55;0.63;;;16.60;87.40;;;;;;4992108;28;20297;-73
2023/07/05 10:28:03;;;;;;;3.50;0.70;;;16.80;87.20;;;;;;5006670;28;20088;-73
2023/07/05 10:30:29;;;;;;;3.80;0.73;;;17.00;86.40;;;;;;4996764;28;20340;-73
2023/07/05 10:33:20;;;;;;;5.07;0.70;;;17.20;87.40;;;;;;5004705;28;20684;-73
2023/07/05 10:35:58;;;;;;;4.37;0.40;;;17.10;83.50;;;;;;4987854;28;20386;-73
2023/07/05 10:38:27;;;;;;;6.73;0.60;;;17.10;84.00;;;;;;4998469;28;20704;-73
2023/07/05 10:40:59;;;;;;;4.27;0.70;;;17.20;81.30;;;;;;5003984;28;20295;-73
2023/07/05 10:43:26;;;;;;;6.27;0.63;;;17.30;83.00;;;;;;5004028;28;20653;-73
2023/07/05 10:45:52;;;;;;;6.57;0.80;;;17.40;81.70;;;;;;5000576;28;20296;-73
2023/07/05 10:48:25;;;;;;;9.67;0.97;;;17.40;82.00;;;;;;5000053;28;20788;-73
2023/07/05 10:50:51;;;;;;;6.80;1.00;;;17.60;78.30;;;;;;4986437;28;20315;-73
2023/07/05 10:53:22;;;;;;;4.87;0.80;;;17.60;78.30;;;;;;5003908;28;20285;-73
2023/07/05 10:56:00;;;;;;;6.53;1.00;;;17.70;78.90;;;;;;4993745;28;20050;-73
2023/07/05 10:58:36;;;;;;;6.73;0.73;;;18.00;80.10;;;;;;5008796;28;20362;-73
2023/07/05 11:01:24;;;;;;;5.47;0.60;;;18.20;78.00;;;;;;4989105;28;20363;-73
2023/07/05 11:04:11;;;;;;;5.30;0.80;;;18.30;78.10;;;;;;4992964;28;20281;-73
2023/07/05 11:06:40;;;;;;;4.63;0.60;;;18.40;76.90;;;;;;5009938;28;20305;-74
2023/07/05 11:09:08;;;;;;;5.17;0.90;;;18.60;78.90;;;;;;5011446;28;20328;-73
2023/07/05 11:11:47;;;;;;;9.67;1.60;;;18.80;71.40;;;;;;5013695;28;20289;-72
2023/07/05 11:14:14;;;;;;;6.83;1.20;;;19.00;72.50;;;;;;5005455;28;20297;-73
2023/07/05 11:16:43;;;;;;;9.50;1.63;;;19.30;72.50;;;;;;5011282;28;20662;-73
2023/07/05 11:19:15;;;;;;;7.73;1.20;;;19.70;71.60;;;;;;4998881;28;20776;-73
2023/07/05 11:21:46;;;;;;;8.43;1.40;;;19.90;71.80;;;;;;5016373;28;20284;-73
2023/07/05 11:24:30;;;;;;;8.67;1.00;;;20.10;67.90;;;;;;4995126;28;20281;-73
2023/07/05 11:26:57;;;;;;;6.97;1.60;;;19.80;68.20;;;;;;4998743;28;20301;-73
2023/07/05 11:29:32;;;;;;;11.53;2.60;;;19.20;74.40;;;;;;4997249;28;20379;-72
2023/07/05 11:32:01;;;;;;;13.43;2.70;;;18.20;80.00;;;;;;5011176;28;20399;-73
2023/07/05 11:34:27;;;;;;;16.03;2.77;;;17.00;85.30;;;;;;5011954;28;20041;-73
2023/07/05 11:37:03;;;;;;;11.30;2.30;;;16.20;89.30;;;;;;5004897;28;20300;-73
2023/07/05 11:39:35;;;;;;;12.20;3.23;;;15.70;92.30;;;;;;5006368;28;20193;-72
2023/07/05 11:42:16;;;;;;;13.00;2.63;;;15.40;94.60;;;;;;4992516;28;20857;-72
2023/07/05 11:44:42;;;;;;;14.20;2.93;;;15.10;96.30;;;;;;4998661;28;20405;-73
2023/07/05 11:47:09;;;;;;;11.47;2.60;;;14.80;96.10;;;;;;5019037;28;20424;-73
2023/07/05 11:49:40;;;;;;;16.97;3.37;;;14.60;97.00;;;;;;5003139;28;20046;-71
2023/07/05 11:52:12;;;;;;;14.87;3.30;;;14.40;98.30;;;;;;5000912;28;20357;-73
2023/07/05 11:55:02;;;;;;;15.17;3.60;;;14.00;99.90;;;;;;5006394;28;20661;-73
2023/07/05 11:57:34;;;;;;;14.03;3.43;;;13.70;99.90;;;;;;4986114;28;20294;-71
2023/07/05 12:00:19;;;;;;;17.80;4.03;;;13.50;99.90;;;;;;5009482;28;21014;-72
2023/07/05 12:03:14;;;;;;;16.25;3.63;;;13.30;99.90;;;;;;5009189;28;20828;-73
2023/07/05 12:05:40;;;;;;;19.67;3.53;;;13.20;99.90;;;;;;5001541;28;20056;-73
2023/07/05 12:08:23;;;;;;;12.30;3.27;;;13.10;99.90;;;;;;5010188;28;20311;-73
2023/07/05 12:10:54;;;;;;;16.57;4.43;;;13.10;99.90;;;;;;5007477;28;20285;-74
2023/07/05 12:13:23;;;;;;;25.17;4.60;;;13.10;99.90;;;;;;4991529;28;20345;-73
2023/07/05 12:15:50;;;;;;;19.67;4.33;;;13.20;99.90;;;;;;4998169;28;20286;-73
2023/07/05 12:18:16;;;;;;;20.47;4.83;;;13.30;99.90;;;;;;5005611;28;20362;-73
2023/07/05 12:20:49;;;;;;;21.43;4.93;;;13.30;99.90;;;;;;5009658;28;20303;-73
2023/07/05 12:23:17;;;;;;;18.77;3.93;;;13.40;99.90;;;;;;5002596;28;20285;-74
2023/07/05 12:25:54;;;;;;;15.03;3.73;;;13.40;99.90;;;;;;4989392;28;20277;-73
2023/07/05 12:28:27;;;;;;;17.37;3.73;;;13.40;99.90;;;;;;5000919;28;20343;-73
2023/07/05 12:30:57;;;;;;;18.40;3.97;;;13.50;99.90;;;;;;5009035;28;20293;-74
2023/07/05 12:33:26;;;;;;;22.83;4.57;;;13.50;99.90;;;;;;4991747;28;20423;-74
2023/07/05 12:36:13;;;;;;;20.57;4.30;;;13.50;99.90;;;;;;5009302;28;20308;-74
2023/07/05 12:38:41;;;;;;;14.30;3.40;;;13.50;99.90;;;;;;5005860;28;20305;-73
2023/07/05 12:41:19;;;;;;;17.27;3.17;;;13.50;99.90;;;;;;5009694;28;20312;-73
2023/07/05 12:43:46;;;;;;;14.83;3.63;;;13.50;99.90;;;;;;5007510;28;20292;-73
2023/07/05 12:46:21;;;;;;;15.37;3.30;;;13.50;99.90;;;;;;5009404;28;20323;-73
2023/07/05 12:48:50;;;;;;;15.52;2.90;;;13.50;99.90;;;;;;5002236;28;20284;-73
2023/07/05 12:51:28;;;;;;;14.30;2.27;;;13.50;99.90;;;;;;5009321;28;20046;-73
2023/07/05 12:53:59;;;;;;;7.60;2.10;;;13.50;99.90;;;;;;5010808;28;20319;-73